Althaia — EA3886 — position and weather

sailwx.info

Track history (hours):
 
Tides and Currents Weather Stations Pressure Air Temp Water Temp Dewpoint Dewpoint Depression Visibility Wind Speed Wind Dir Waves Ship Positions

Althaia

Last reported at 2018-Apr-23 03:57 UTC. Time now 2018-Apr-25 06:49 UTC.
Position N 37°58' W 000°40'.

Length 18 m.

Type: . MMSI: 224082990.

Date/timePositionNaut miles runAvg speedWind from/ knotsBaromVisibWave heightAir tempDewpointWater temp
2018-Apr-23 03:57N 37°58' W 000°40'  
2018-Apr-20 05:29N 37°57' W 000°41'2 0.1
2018-Apr-19 04:00N 37°58' W 000°38'7 1.2
2018-Apr-18 22:24N 38°04' W 000°33'8 0.2
2018-Apr-17 07:04N 37°58' W 000°41'0 0.1
2018-Apr-17 06:38N 37°58' W 000°41'0 0.0
2018-Apr-17 05:44N 37°58' W 000°41'1 0.0
2018-Apr-16 05:00N 37°57' W 000°41'4 6.8
2018-Apr-16 04:29N 37°55' W 000°38'0 0.2
2018-Apr-16 03:58N 37°55' W 000°38'4 4.7
2018-Apr-16 03:08N 37°56' W 000°34'2 8.4
2018-Apr-16 02:53N 37°55' W 000°35'2 1.9
2018-Apr-16 01:34N 37°56' W 000°37'0 0.7
2018-Apr-16 01:27N 37°56' W 000°37'0 0.1
2018-Apr-16 00:57N 37°56' W 000°37'0 0.2
2018-Apr-16 00:28N 37°56' W 000°37'0 0.2
2018-Apr-15 23:59N 37°56' W 000°37'0 0.0
2018-Apr-15 23:26N 37°56' W 000°37'0 0.5
2018-Apr-15 22:53N 37°56' W 000°37'3 7.0
2018-Apr-15 22:30N 37°57' W 000°40'  
2018-Apr-13 05:35N 37°57' W 000°41'1 8.8
2018-Apr-13 05:26N 37°56' W 000°41'3 6.0
2018-Apr-13 04:53N 37°53' W 000°38'1 1.5
2018-Apr-13 04:30N 37°54' W 000°38'  
Track history (hours):
 
Tides and Currents Weather Stations Pressure Air Temp Water Temp Dewpoint Dewpoint Depression Visibility Wind Speed Wind Dir Waves Ship Positions

Althaia

Last reported at 2018-Apr-23 03:57 UTC. Time now 2018-Apr-25 06:49 UTC.
Position N 37°58' W 000°40'.

Length 18 m.

Type: . MMSI: 224082990.

Date/timePositionNaut miles runAvg speedWind from/ knotsBaromVisibWave heightAir tempDewpointWater temp
2018-Apr-23 03:57N 37°58' W 000°40'  
2018-Apr-20 05:29N 37°57' W 000°41'2 0.1
2018-Apr-19 04:00N 37°58' W 000°38'7 1.2
2018-Apr-18 22:24N 38°04' W 000°33'8 0.2
2018-Apr-17 07:04N 37°58' W 000°41'0 0.1
2018-Apr-17 06:38N 37°58' W 000°41'0 0.0
2018-Apr-17 05:44N 37°58' W 000°41'1 0.0
2018-Apr-16 05:00N 37°57' W 000°41'4 6.8
2018-Apr-16 04:29N 37°55' W 000°38'0 0.2
2018-Apr-16 03:58N 37°55' W 000°38'4 4.7
2018-Apr-16 03:08N 37°56' W 000°34'2 8.4
2018-Apr-16 02:53N 37°55' W 000°35'2 1.9
2018-Apr-16 01:34N 37°56' W 000°37'0 0.7
2018-Apr-16 01:27N 37°56' W 000°37'0 0.1
2018-Apr-16 00:57N 37°56' W 000°37'0 0.2
2018-Apr-16 00:28N 37°56' W 000°37'0 0.2
2018-Apr-15 23:59N 37°56' W 000°37'0 0.0
2018-Apr-15 23:26N 37°56' W 000°37'0 0.5
2018-Apr-15 22:53N 37°56' W 000°37'3 7.0
2018-Apr-15 22:30N 37°57' W 000°40'  
2018-Apr-13 05:35N 37°57' W 000°41'1 8.8
2018-Apr-13 05:26N 37°56' W 000°41'3 6.0
2018-Apr-13 04:53N 37°53' W 000°38'1 1.5
2018-Apr-13 04:30N 37°54' W 000°38'  

Dump ship's entire track history